createdAt,value
2022-07-27T00:01:50.575Z,39.17
2022-07-27T00:04:18.435Z,39.28
2022-07-27T00:06:45.149Z,39.13
2022-07-27T00:09:12.126Z,39.27
2022-07-27T00:11:39.048Z,39.17
2022-07-27T00:14:08.690Z,39.39
2022-07-27T00:16:35.473Z,39.49
2022-07-27T00:19:02.174Z,39.46
2022-07-27T00:21:28.799Z,39.48
2022-07-27T00:23:55.556Z,39.49
2022-07-27T00:26:22.308Z,40.03
2022-07-27T00:28:49.364Z,39.80
2022-07-27T00:31:16.344Z,39.72
2022-07-27T00:33:43.027Z,39.97
2022-07-27T00:36:09.762Z,39.97
2022-07-27T00:38:36.490Z,40.64
2022-07-27T00:41:03.164Z,40.57
2022-07-27T00:43:29.910Z,40.24
2022-07-27T00:45:56.521Z,40.92
2022-07-27T00:48:23.191Z,41.41
2022-07-27T00:50:51.744Z,41.27
2022-07-27T00:53:18.335Z,41.49
2022-07-27T00:55:45.192Z,41.24
2022-07-27T00:58:11.876Z,41.81
2022-07-27T01:00:38.694Z,41.59
2022-07-27T01:03:08.814Z,41.40
2022-07-27T01:05:37.890Z,41.52
2022-07-27T01:08:12.172Z,41.79
2022-07-27T01:10:39.829Z,42.00
2022-07-27T01:13:06.494Z,41.82
2022-07-27T01:15:39.627Z,41.41
2022-07-27T01:18:27.035Z,41.63
2022-07-27T01:20:54.307Z,41.36
2022-07-27T01:23:20.986Z,41.18
2022-07-27T01:25:47.789Z,40.93
2022-07-27T01:28:14.465Z,40.55
2022-07-27T01:30:41.081Z,40.22
2022-07-27T01:33:08.698Z,40.40
2022-07-27T01:35:36.127Z,40.40
2022-07-27T01:38:02.897Z,40.13
2022-07-27T01:40:29.544Z,40.23
2022-07-27T01:42:56.411Z,40.30
2022-07-27T01:45:23.048Z,40.31
2022-07-27T01:47:49.721Z,40.16
2022-07-27T01:50:16.432Z,40.52
2022-07-27T01:52:48.723Z,40.49
2022-07-27T01:55:19.423Z,41.08
2022-07-27T01:57:46.094Z,41.40
2022-07-27T02:00:15.197Z,41.82
2022-07-27T02:02:41.941Z,41.43
2022-07-27T02:05:11.938Z,40.89
2022-07-27T02:07:40.098Z,40.63
2022-07-27T02:10:07.100Z,40.85
2022-07-27T02:12:36.432Z,41.17
2022-07-27T02:15:14.719Z,41.64
2022-07-27T02:17:42.405Z,42.23
2022-07-27T02:20:10.086Z,42.24
2022-07-27T02:22:36.839Z,42.24
2022-07-27T02:25:04.253Z,42.29
2022-07-27T02:27:30.880Z,42.37
2022-07-27T02:29:58.087Z,42.09
2022-07-27T02:32:24.771Z,41.72
2022-07-27T02:34:53.909Z,41.62
2022-07-27T02:37:22.612Z,41.49
2022-07-27T02:39:49.597Z,41.32
2022-07-27T02:42:16.235Z,41.24
2022-07-27T02:44:43.013Z,41.06
2022-07-27T02:47:09.635Z,40.88
2022-07-27T02:49:38.660Z,40.70
2022-07-27T02:52:07.815Z,40.72
2022-07-27T02:54:37.678Z,40.59
2022-07-27T02:57:07.074Z,40.70
2022-07-27T02:59:33.733Z,40.64
2022-07-27T03:02:00.426Z,40.48
2022-07-27T03:04:27.170Z,40.44
2022-07-27T03:06:56.300Z,40.20
2022-07-27T03:09:29.045Z,40.04
2022-07-27T03:12:05.694Z,40.34
2022-07-27T03:14:34.579Z,39.95
2022-07-27T03:17:01.292Z,39.61
2022-07-27T03:19:30.412Z,39.79
2022-07-27T03:21:57.260Z,40.05
2022-07-27T03:24:23.894Z,40.23
2022-07-27T03:26:50.536Z,40.01
2022-07-27T03:29:17.216Z,40.31
2022-07-27T03:31:45.648Z,40.26
2022-07-27T03:34:13.751Z,40.19
2022-07-27T03:36:40.419Z,40.09
2022-07-27T03:39:07.478Z,40.29
2022-07-27T03:41:34.179Z,40.49
2022-07-27T03:44:03.207Z,40.54
2022-07-27T03:46:29.859Z,40.73
2022-07-27T03:48:57.743Z,40.73
2022-07-27T03:51:24.649Z,40.37
2022-07-27T03:53:51.316Z,39.96
2022-07-27T03:56:17.943Z,40.26
2022-07-27T03:58:47.092Z,40.41
2022-07-27T04:01:13.866Z,40.40
2022-07-27T04:03:44.239Z,40.08
2022-07-27T04:06:13.533Z,39.90
2022-07-27T04:08:40.247Z,39.98
2022-07-27T04:11:07.689Z,39.96
2022-07-27T04:13:36.492Z,40.01
2022-07-27T04:16:05.711Z,40.04
2022-07-27T04:18:32.451Z,40.17
2022-07-27T04:21:01.969Z,39.82
2022-07-27T04:23:28.716Z,39.49
2022-07-27T04:25:55.413Z,39.24
2022-07-27T04:28:22.063Z,38.75
2022-07-27T04:30:48.721Z,38.67
2022-07-27T04:33:15.556Z,38.76
2022-07-27T04:35:42.256Z,38.93
2022-07-27T04:38:08.923Z,38.73
2022-07-27T04:40:35.656Z,38.25
2022-07-27T04:43:03.257Z,37.93
2022-07-27T04:45:30.001Z,37.75
2022-07-27T04:47:58.831Z,38.19
2022-07-27T04:50:25.512Z,38.02
2022-07-27T04:52:52.111Z,37.54
2022-07-27T04:55:18.808Z,37.78
2022-07-27T04:57:45.448Z,37.31
2022-07-27T05:00:12.492Z,37.73
2022-07-27T05:02:42.261Z,37.73
2022-07-27T05:05:09.166Z,37.39
2022-07-27T05:07:36.639Z,37.54
2022-07-27T05:10:03.732Z,37.40
2022-07-27T05:12:30.446Z,37.72
2022-07-27T05:14:57.093Z,38.64
2022-07-27T05:17:23.690Z,38.83
2022-07-27T05:19:50.339Z,38.28
2022-07-27T05:22:16.972Z,38.93
2022-07-27T05:24:47.217Z,38.48
2022-07-27T05:27:13.955Z,38.44
2022-07-27T05:29:40.612Z,38.31
2022-07-27T05:32:07.536Z,38.05
2022-07-27T05:34:34.354Z,37.87
2022-07-27T05:37:01.850Z,37.77
2022-07-27T05:39:28.585Z,38.12
2022-07-27T05:41:55.272Z,38.27
2022-07-27T05:44:21.984Z,38.31
2022-07-27T05:47:06.150Z,38.15
2022-07-27T05:49:33.279Z,38.48
2022-07-27T05:52:02.288Z,38.10
2022-07-27T05:54:28.963Z,38.00
2022-07-27T05:56:55.747Z,38.06
2022-07-27T05:59:22.385Z,38.04
2022-07-27T06:01:49.001Z,37.94
2022-07-27T06:04:15.652Z,38.24
2022-07-27T06:07:00.926Z,37.91
2022-07-27T06:09:27.544Z,38.04
2022-07-27T06:11:54.202Z,38.02
2022-07-27T06:14:20.897Z,37.98
2022-07-27T06:16:47.565Z,37.98
2022-07-27T06:19:14.652Z,37.92
2022-07-27T06:21:41.540Z,38.02
2022-07-27T06:24:08.367Z,37.90
2022-07-27T06:26:37.963Z,37.95
2022-07-27T06:29:09.805Z,37.81
2022-07-27T06:31:37.746Z,37.91
2022-07-27T06:34:11.743Z,37.90
2022-07-27T06:36:42.939Z,37.88
2022-07-27T06:39:10.064Z,37.95
2022-07-27T06:41:36.964Z,37.73
2022-07-27T06:44:03.675Z,37.73
2022-07-27T06:46:30.456Z,37.76
2022-07-27T06:48:57.197Z,37.77
2022-07-27T06:51:24.115Z,37.89
2022-07-27T06:53:53.257Z,37.94
2022-07-27T06:56:20.595Z,37.85
2022-07-27T06:58:47.252Z,37.68
2022-07-27T07:01:14.821Z,37.92
2022-07-27T07:03:44.083Z,37.90
2022-07-27T07:06:13.169Z,37.90
2022-07-27T07:08:39.802Z,37.92
2022-07-27T07:11:06.607Z,37.73
2022-07-27T07:13:37.734Z,37.94
2022-07-27T07:16:06.068Z,37.87
2022-07-27T07:18:32.765Z,37.91
2022-07-27T07:20:59.434Z,37.77
2022-07-27T07:23:26.470Z,37.86
2022-07-27T07:25:53.144Z,37.92
2022-07-27T07:28:22.234Z,37.91
2022-07-27T07:30:49.393Z,37.95
2022-07-27T07:33:16.098Z,37.68
2022-07-27T07:36:13.580Z,37.87
2022-07-27T07:38:30.115Z,37.79
2022-07-27T07:40:56.750Z,37.95
2022-07-27T07:43:23.503Z,38.13
2022-07-27T07:45:52.130Z,37.86
2022-07-27T07:48:20.682Z,37.75
2022-07-27T07:50:51.645Z,38.06
2022-07-27T07:53:23.417Z,37.89
2022-07-27T07:55:50.998Z,38.00
2022-07-27T07:58:18.138Z,38.00
2022-07-27T08:00:44.831Z,38.09
2022-07-27T08:03:14.425Z,37.73
2022-07-27T08:05:41.109Z,37.82
2022-07-27T08:08:07.794Z,37.76
2022-07-27T08:10:34.425Z,37.99
2022-07-27T08:13:01.055Z,38.01
2022-07-27T08:15:34.932Z,38.07
2022-07-27T08:18:06.027Z,37.95
2022-07-27T08:20:32.862Z,37.88
2022-07-27T08:22:59.534Z,38.02
2022-07-27T08:25:26.171Z,37.89
2022-07-27T08:27:52.813Z,38.09
2022-07-27T08:30:22.108Z,37.98
2022-07-27T08:32:57.788Z,38.02
2022-07-27T08:35:24.573Z,38.08
2022-07-27T08:37:51.236Z,38.06
2022-07-27T08:43:05.519Z,38.02
2022-07-27T08:45:32.515Z,38.16
2022-07-27T08:47:59.283Z,38.20
2022-07-27T08:50:30.374Z,38.15
2022-07-27T08:53:03.346Z,38.08
2022-07-27T08:55:40.384Z,38.04
2022-07-27T08:58:07.493Z,37.92
2022-07-27T09:00:35.113Z,37.91
2022-07-27T09:03:02.084Z,38.10
2022-07-27T09:05:36.140Z,38.08
2022-07-27T09:08:10.241Z,38.00
2022-07-27T09:10:38.403Z,38.00
2022-07-27T09:13:29.877Z,38.16
2022-07-27T09:16:22.434Z,38.10
2022-07-27T09:18:49.174Z,37.97
2022-07-27T09:21:22.876Z,38.07
2022-07-27T09:23:51.885Z,38.07
2022-07-27T09:26:33.827Z,38.07
2022-07-27T09:29:10.916Z,38.21
2022-07-27T09:31:46.444Z,38.04
2022-07-27T09:34:13.803Z,38.24
2022-07-27T09:36:54.144Z,38.09
2022-07-27T09:39:21.859Z,38.06
2022-07-27T09:42:00.153Z,38.03
2022-07-27T09:44:43.986Z,38.00
2022-07-27T09:47:29.971Z,38.16
2022-07-27T09:49:58.499Z,38.03
2022-07-27T09:52:26.650Z,37.86
2022-07-27T09:54:53.323Z,38.05
2022-07-27T09:57:22.932Z,38.10
2022-07-27T09:59:49.559Z,37.96
2022-07-27T10:02:16.468Z,37.79
2022-07-27T10:04:43.350Z,37.92
2022-07-27T10:07:13.459Z,37.79
2022-07-27T10:09:43.286Z,37.92
2022-07-27T10:12:10.093Z,37.79
2022-07-27T10:14:36.782Z,37.94
2022-07-27T10:17:03.406Z,37.80
2022-07-27T10:19:45.724Z,37.93
2022-07-27T10:22:12.956Z,37.68
2022-07-27T10:24:39.573Z,37.91
2022-07-27T10:27:21.235Z,38.04
2022-07-27T10:29:50.862Z,37.77
2022-07-27T10:32:28.815Z,37.96
2022-07-27T10:34:55.505Z,37.75
2022-07-27T10:37:31.564Z,37.75
2022-07-27T10:40:26.567Z,37.80
2022-07-27T10:43:07.125Z,37.60
2022-07-27T10:45:50.422Z,37.78
2022-07-27T10:48:45.954Z,37.88
2022-07-27T10:51:16.433Z,37.77
2022-07-27T10:54:10.954Z,37.56
2022-07-27T10:56:47.280Z,37.77
2022-07-27T10:59:14.023Z,37.60
2022-07-27T11:01:57.280Z,37.69
2022-07-27T11:04:24.646Z,37.73
2022-07-27T11:07:23.561Z,37.67
2022-07-27T11:12:29.565Z,37.59
2022-07-27T11:14:56.981Z,37.49
2022-07-27T11:20:13.428Z,37.55
2022-07-27T11:25:27.748Z,37.53
2022-07-27T11:27:54.330Z,37.60
2022-07-27T11:30:22.541Z,37.68
2022-07-27T11:32:49.507Z,37.21
2022-07-27T11:35:19.832Z,37.24
2022-07-27T11:38:05.098Z,37.60
2022-07-27T11:40:56.945Z,37.53
2022-07-27T11:43:36.752Z,37.33
2022-07-27T11:46:20.080Z,37.31
2022-07-27T11:49:07.110Z,37.34
2022-07-27T11:51:39.405Z,37.15
2022-07-27T11:54:07.792Z,37.32
2022-07-27T11:56:35.868Z,37.43
2022-07-27T11:59:13.969Z,37.09
2022-07-27T12:01:44.868Z,37.36
2022-07-27T12:04:19.279Z,37.30
2022-07-27T12:07:07.527Z,37.22
2022-07-27T12:09:38.004Z,37.24
2022-07-27T12:12:10.058Z,37.35
2022-07-27T12:14:38.663Z,37.33
2022-07-27T12:17:20.214Z,37.30
2022-07-27T12:19:54.381Z,37.20
2022-07-27T12:22:24.962Z,36.96
2022-07-27T12:24:51.737Z,37.09
2022-07-27T12:27:18.379Z,36.98
2022-07-27T12:30:01.707Z,37.22
2022-07-27T12:32:28.770Z,36.84
2022-07-27T12:34:55.448Z,37.09
2022-07-27T12:37:22.234Z,37.01
2022-07-27T12:39:49.009Z,37.07
2022-07-27T12:42:15.800Z,37.04
2022-07-27T12:44:44.585Z,36.99
2022-07-27T12:47:29.927Z,37.02
2022-07-27T12:50:08.356Z,37.02
2022-07-27T12:52:36.500Z,36.88
2022-07-27T12:55:04.018Z,37.02
2022-07-27T12:57:53.963Z,36.77
2022-07-27T13:00:18.859Z,36.75
2022-07-27T13:02:45.908Z,36.95
2022-07-27T13:05:13.910Z,36.71
2022-07-27T13:07:41.297Z,36.88
2022-07-27T13:10:09.032Z,36.80
2022-07-27T13:12:35.974Z,36.66
2022-07-27T13:15:06.946Z,36.76
2022-07-27T13:17:34.130Z,36.72
2022-07-27T13:20:03.304Z,36.79
2022-07-27T13:22:30.087Z,36.74
2022-07-27T13:24:56.772Z,36.66
2022-07-27T13:27:23.407Z,36.98
2022-07-27T13:29:50.046Z,36.73
2022-07-27T13:32:18.237Z,36.82
2022-07-27T13:34:45.167Z,36.48
2022-07-27T13:37:11.876Z,36.47
2022-07-27T13:39:38.679Z,36.69
2022-07-27T13:42:05.480Z,36.51
2022-07-27T13:45:00.520Z,36.53
2022-07-27T13:47:18.737Z,36.47
2022-07-27T13:49:45.385Z,36.40
2022-07-27T13:52:14.916Z,36.52
2022-07-27T13:54:42.035Z,36.38
2022-07-27T13:57:09.112Z,36.28
2022-07-27T13:59:35.881Z,36.62
2022-07-27T14:02:02.597Z,36.44
2022-07-27T14:04:29.317Z,36.33
2022-07-27T14:06:58.916Z,36.39
2022-07-27T14:09:45.513Z,36.32
2022-07-27T14:12:12.120Z,36.26
2022-07-27T14:14:38.808Z,36.39
2022-07-27T14:17:05.725Z,36.13
2022-07-27T14:19:32.389Z,36.44
2022-07-27T14:21:59.051Z,36.18
2022-07-27T14:24:25.684Z,36.12
2022-07-27T14:26:52.315Z,35.46
2022-07-27T14:29:21.688Z,33.73
2022-07-27T14:31:48.579Z,33.25
2022-07-27T14:34:16.553Z,32.38
2022-07-27T14:36:45.656Z,32.61
2022-07-27T14:39:12.588Z,33.01
2022-07-27T14:41:44.147Z,33.04
2022-07-27T14:44:11.173Z,32.38
2022-07-27T14:46:38.323Z,32.24
2022-07-27T14:49:06.567Z,31.82
2022-07-27T14:51:33.551Z,33.03
2022-07-27T14:54:00.217Z,33.09
2022-07-27T14:56:26.993Z,33.60
2022-07-27T14:58:53.618Z,33.83
2022-07-27T15:01:20.322Z,33.15
2022-07-27T15:03:47.072Z,33.23
2022-07-27T15:06:13.774Z,33.25
2022-07-27T15:08:40.423Z,34.02
2022-07-27T15:11:07.090Z,34.18
2022-07-27T15:13:34.126Z,34.40
2022-07-27T15:16:00.849Z,34.60
2022-07-27T15:18:34.961Z,34.86
2022-07-27T15:21:12.809Z,34.73
2022-07-27T15:23:41.911Z,35.01
2022-07-27T15:26:08.538Z,35.04
2022-07-27T15:28:36.386Z,35.38
2022-07-27T15:31:03.327Z,35.43
2022-07-27T15:33:30.084Z,35.57
2022-07-27T15:35:56.799Z,35.90
2022-07-27T15:38:23.472Z,35.99
2022-07-27T15:40:50.131Z,35.89
2022-07-27T15:43:17.485Z,35.91
2022-07-27T15:45:46.332Z,35.81
2022-07-27T15:48:13.029Z,35.81
2022-07-27T15:50:41.807Z,35.91
2022-07-27T15:53:08.611Z,35.75
2022-07-27T15:55:35.439Z,35.89
2022-07-27T15:58:02.070Z,35.78
2022-07-27T16:00:28.960Z,35.95
2022-07-27T16:02:55.931Z,35.96
2022-07-27T16:05:23.943Z,36.23
2022-07-27T16:07:50.798Z,37.00
2022-07-27T16:10:17.825Z,36.53
2022-07-27T16:12:47.459Z,36.60
2022-07-27T16:15:14.189Z,36.43
2022-07-27T16:17:40.877Z,35.87
2022-07-27T16:20:08.041Z,35.83
2022-07-27T16:22:37.954Z,35.58
2022-07-27T16:25:05.003Z,35.35
2022-07-27T16:27:34.021Z,35.54
2022-07-27T16:30:00.662Z,35.43
2022-07-27T16:32:27.332Z,35.03
2022-07-27T16:34:53.966Z,35.18
2022-07-27T16:37:20.721Z,34.57
2022-07-27T16:39:47.339Z,34.73
2022-07-27T16:42:14.311Z,34.75
2022-07-27T16:44:41.491Z,35.00
2022-07-27T16:47:09.646Z,35.19
2022-07-27T16:49:36.874Z,35.39
2022-07-27T16:52:05.280Z,35.22
2022-07-27T16:54:35.574Z,35.26
2022-07-27T16:57:05.877Z,35.20
2022-07-27T16:59:32.540Z,35.32
2022-07-27T17:01:59.272Z,34.90
2022-07-27T17:04:28.670Z,35.13
2022-07-27T17:06:55.333Z,35.21
2022-07-27T17:09:22.004Z,34.96
2022-07-27T17:11:48.794Z,34.40
2022-07-27T17:14:16.663Z,34.39
2022-07-27T17:16:50.252Z,34.38
2022-07-27T17:19:19.007Z,33.73
2022-07-27T17:21:45.845Z,33.93
2022-07-27T17:24:12.487Z,34.15
2022-07-27T17:26:39.165Z,33.92
2022-07-27T17:29:05.944Z,33.42
2022-07-27T17:31:37.882Z,33.90
2022-07-27T17:34:04.632Z,33.50
2022-07-27T17:36:31.277Z,33.90
2022-07-27T17:38:58.017Z,34.05
2022-07-27T17:41:27.112Z,33.67
2022-07-27T17:43:54.402Z,33.33
2022-07-27T17:46:21.942Z,33.82
2022-07-27T17:48:48.844Z,33.71
2022-07-27T17:51:15.586Z,33.96
2022-07-27T17:53:42.905Z,33.88
2022-07-27T17:56:11.003Z,34.24
2022-07-27T17:58:38.094Z,34.12
2022-07-27T18:01:06.279Z,34.20
2022-07-27T18:03:34.081Z,34.24
2022-07-27T18:06:01.667Z,34.43
2022-07-27T18:08:28.397Z,34.25
2022-07-27T18:10:55.118Z,34.30
2022-07-27T18:13:21.877Z,34.22
2022-07-27T18:15:50.489Z,34.57
2022-07-27T18:18:21.247Z,34.77
2022-07-27T18:20:50.256Z,34.68
2022-07-27T18:23:17.156Z,34.59
2022-07-27T18:25:44.423Z,34.44
2022-07-27T18:28:11.562Z,34.62
2022-07-27T18:30:38.213Z,34.81
2022-07-27T18:33:04.910Z,34.79
2022-07-27T18:35:31.794Z,34.96
2022-07-27T18:37:58.488Z,34.96
2022-07-27T18:40:25.206Z,35.10
2022-07-27T18:42:51.832Z,35.39
2022-07-27T18:45:18.528Z,35.56
2022-07-27T18:47:49.339Z,35.41
2022-07-27T18:50:16.490Z,35.47
2022-07-27T18:52:43.122Z,35.80
2022-07-27T18:55:09.917Z,35.80
2022-07-27T18:57:36.541Z,35.88
2022-07-27T19:00:04.882Z,36.26
2022-07-27T19:02:37.125Z,36.17
2022-07-27T19:05:07.327Z,36.19
2022-07-27T19:07:35.766Z,36.24
2022-07-27T19:10:05.697Z,36.43
2022-07-27T19:12:32.440Z,36.59
2022-07-27T19:15:01.547Z,36.61
2022-07-27T19:17:28.251Z,36.78
2022-07-27T19:19:54.912Z,36.55
2022-07-27T19:22:21.585Z,36.70
2022-07-27T19:24:52.812Z,37.03
2022-07-27T19:27:21.436Z,37.08
2022-07-27T19:29:48.094Z,36.94
2022-07-27T19:32:14.808Z,36.30
2022-07-27T19:34:41.502Z,36.35
2022-07-27T19:37:10.552Z,36.78
2022-07-27T19:39:57.283Z,36.93
2022-07-27T19:42:24.057Z,36.77
2022-07-27T19:44:50.663Z,36.40
2022-07-27T19:47:18.470Z,36.51
2022-07-27T19:49:45.540Z,37.94
2022-07-27T19:52:12.174Z,38.11
2022-07-27T19:54:38.850Z,37.96
2022-07-27T19:57:05.539Z,38.40
2022-07-27T19:59:55.667Z,38.17
2022-07-27T20:02:19.514Z,37.69
2022-07-27T20:04:46.278Z,38.23
2022-07-27T20:07:12.937Z,38.35
2022-07-27T20:09:39.562Z,38.67
2022-07-27T20:12:06.359Z,38.62
2022-07-27T20:14:35.286Z,38.58
2022-07-27T20:17:02.012Z,38.26
2022-07-27T20:19:29.912Z,38.11
2022-07-27T20:21:57.520Z,38.51
2022-07-27T20:24:24.179Z,38.67
2022-07-27T20:26:50.807Z,38.85
2022-07-27T20:29:17.487Z,39.83
2022-07-27T20:31:44.152Z,38.75
2022-07-27T20:34:11.049Z,38.82
2022-07-27T20:36:37.661Z,38.42
2022-07-27T20:39:07.457Z,39.97
2022-07-27T20:41:36.668Z,39.43
2022-07-27T20:44:03.314Z,39.36
2022-07-27T20:46:30.025Z,39.01
2022-07-27T20:48:56.786Z,39.20
2022-07-27T20:51:23.464Z,39.57
2022-07-27T20:53:52.677Z,39.20
2022-07-27T20:56:19.385Z,39.03
2022-07-27T20:58:46.203Z,38.91
2022-07-27T21:01:13.101Z,39.14
2022-07-27T21:03:39.761Z,38.84
2022-07-27T21:06:06.440Z,39.23
2022-07-27T21:08:35.406Z,39.22
2022-07-27T21:11:02.101Z,39.50
2022-07-27T21:13:28.723Z,39.91
2022-07-27T21:15:55.365Z,39.67
2022-07-27T21:18:21.987Z,39.58
2022-07-27T21:20:48.615Z,39.94
2022-07-27T21:23:34.409Z,39.75
2022-07-27T21:26:01.203Z,40.10
2022-07-27T21:28:27.866Z,40.11
2022-07-27T21:30:54.460Z,40.60
2022-07-27T21:33:21.160Z,40.41
2022-07-27T21:35:47.786Z,40.67
2022-07-27T21:38:14.433Z,40.76
2022-07-27T21:40:41.160Z,40.67
2022-07-27T21:43:10.872Z,40.19
2022-07-27T21:45:37.560Z,40.41
2022-07-27T21:48:06.009Z,40.61
2022-07-27T21:50:32.685Z,40.29
2022-07-27T21:53:00.097Z,40.63
2022-07-27T21:55:26.725Z,40.16
2022-07-27T21:57:55.780Z,40.26
2022-07-27T22:00:29.417Z,40.16
2022-07-27T22:02:56.420Z,39.64
2022-07-27T22:05:23.371Z,39.42
2022-07-27T22:07:51.059Z,39.60
2022-07-27T22:10:18.141Z,39.31
2022-07-27T22:12:44.792Z,39.70
2022-07-27T22:15:11.468Z,39.47
2022-07-27T22:17:45.948Z,39.53
2022-07-27T22:20:17.427Z,39.51
2022-07-27T22:22:44.075Z,39.43
2022-07-27T22:25:13.752Z,39.04
2022-07-27T22:27:40.471Z,39.29
2022-07-27T22:30:07.594Z,39.20
2022-07-27T22:32:34.451Z,39.24
2022-07-27T22:35:01.140Z,39.27
2022-07-27T22:37:27.786Z,39.03
2022-07-27T22:39:54.372Z,38.95
2022-07-27T22:42:20.994Z,39.02
2022-07-27T22:44:47.600Z,39.29
2022-07-27T22:47:14.222Z,38.81
2022-07-27T22:49:41.022Z,38.78
2022-07-27T22:52:07.628Z,38.87
2022-07-27T22:54:35.326Z,38.87
2022-07-27T22:57:02.085Z,39.44
2022-07-27T22:59:28.760Z,39.30
2022-07-27T23:01:55.441Z,39.25
2022-07-27T23:04:22.355Z,39.46
2022-07-27T23:06:48.992Z,39.47
2022-07-27T23:09:15.693Z,39.51
2022-07-27T23:11:42.365Z,39.50
2022-07-27T23:14:09.000Z,39.30
2022-07-27T23:16:35.685Z,39.84
2022-07-27T23:19:02.330Z,39.47
2022-07-27T23:21:29.006Z,39.76
2022-07-27T23:23:55.659Z,39.65
2022-07-27T23:26:25.859Z,39.31
2022-07-27T23:28:53.419Z,39.70
2022-07-27T23:31:22.525Z,39.47
2022-07-27T23:33:49.342Z,39.70
2022-07-27T23:36:15.960Z,39.20
2022-07-27T23:38:44.832Z,39.41
2022-07-27T23:41:11.507Z,38.93
2022-07-27T23:43:38.120Z,39.32
2022-07-27T23:46:06.971Z,39.35
2022-07-27T23:48:33.717Z,38.98
2022-07-27T23:51:00.628Z,39.42
2022-07-27T23:53:28.479Z,39.71
2022-07-27T23:55:58.357Z,40.43
2022-07-27T23:58:24.986Z,40.79
